sensor_id;sensor_type;location;lat;lon;timestamp;pressure;altitude;pressure_sealevel;temperature;humidity
50684;BME280;36654;45.042;38.994;2022-07-29T00:01:21;101073.59;;;25.57;54.44
50684;BME280;36654;45.042;38.994;2022-07-29T00:03:47;101065.88;;;25.48;54.43
50684;BME280;36654;45.042;38.994;2022-07-29T00:06:13;101070.34;;;25.49;54.68
50684;BME280;36654;45.042;38.994;2022-07-29T00:08:39;101073.22;;;25.46;55.05
50684;BME280;36654;45.042;38.994;2022-07-29T00:11:04;101067.13;;;25.41;55.02
50684;BME280;36654;45.042;38.994;2022-07-29T00:13:30;101081.69;;;25.38;55.03
50684;BME280;36654;45.042;38.994;2022-07-29T00:15:56;101071.06;;;25.34;55.42
50684;BME280;36654;45.042;38.994;2022-07-29T00:18:21;101070.25;;;25.32;55.24
50684;BME280;36654;45.042;38.994;2022-07-29T00:20:47;101075.53;;;25.35;55.11
50684;BME280;36654;45.042;38.994;2022-07-29T00:23:13;101078.97;;;25.38;55.04
50684;BME280;36654;45.042;38.994;2022-07-29T00:25:38;101078.25;;;25.35;55.29
50684;BME280;36654;45.042;38.994;2022-07-29T00:28:04;101082.03;;;25.31;55.18
50684;BME280;36654;45.042;38.994;2022-07-29T00:30:30;101080.22;;;25.31;55.46
50684;BME280;36654;45.042;38.994;2022-07-29T00:32:55;101084.88;;;25.28;55.32
50684;BME280;36654;45.042;38.994;2022-07-29T00:35:21;101036.31;;;25.01;55.38
50684;BME280;36654;45.042;38.994;2022-07-29T00:38:05;101068.22;;;25.16;55.28
50684;BME280;36654;45.042;38.994;2022-07-29T00:40:31;101083.03;;;25.28;55.32
50684;BME280;36654;45.042;38.994;2022-07-29T00:42:56;101084.75;;;25.31;55.59
50684;BME280;36654;45.042;38.994;2022-07-29T00:45:22;101081.97;;;25.32;55.53
50684;BME280;36654;45.042;38.994;2022-07-29T00:47:48;101085.56;;;25.33;55.59
50684;BME280;36654;45.042;38.994;2022-07-29T00:50:14;101055.34;;;25.22;55.23
50684;BME280;36654;45.042;38.994;2022-07-29T00:52:41;101051.81;;;25.20;55.38
50684;BME280;36654;45.042;38.994;2022-07-29T00:55:10;101071.47;;;25.25;55.65
50684;BME280;36654;45.042;38.994;2022-07-29T00:57:37;101082.50;;;25.20;55.61
50684;BME280;36654;45.042;38.994;2022-07-29T01:00:07;101076.28;;;25.18;56.16
50684;BME280;36654;45.042;38.994;2022-07-29T01:02:33;101070.00;;;25.16;56.46
50684;BME280;36654;45.042;38.994;2022-07-29T01:04:59;101070.47;;;25.05;56.80
50684;BME280;36654;45.042;38.994;2022-07-29T01:07:26;101081.06;;;25.11;57.78
50684;BME280;36654;45.042;38.994;2022-07-29T01:09:53;101057.53;;;24.91;58.46
50684;BME280;36654;45.042;38.994;2022-07-29T01:12:25;101074.81;;;24.89;59.31
50684;BME280;36654;45.042;38.994;2022-07-29T01:14:52;101045.22;;;24.62;59.58
50684;BME280;36654;45.042;38.994;2022-07-29T01:20:20;101079.41;;;24.66;61.08
50684;BME280;36654;45.042;38.994;2022-07-29T01:23:01;101022.16;;;24.30;61.10
50684;BME280;36654;45.042;38.994;2022-07-29T01:25:44;101075.16;;;24.59;61.19
50684;BME280;36654;45.042;38.994;2022-07-29T01:30:58;101072.13;;;24.45;61.82
50684;BME280;36654;45.042;38.994;2022-07-29T01:33:26;101078.38;;;24.47;62.47
50684;BME280;36654;45.042;38.994;2022-07-29T01:36:31;101085.09;;;24.37;63.02
50684;BME280;36654;45.042;38.994;2022-07-29T01:41:38;101082.28;;;24.16;64.00
50684;BME280;36654;45.042;38.994;2022-07-29T01:44:33;101085.38;;;24.07;64.09
50684;BME280;36654;45.042;38.994;2022-07-29T01:47:04;101089.41;;;23.97;65.03
50684;BME280;36654;45.042;38.994;2022-07-29T01:49:35;101086.00;;;23.92;65.06
50684;BME280;36654;45.042;38.994;2022-07-29T01:52:05;101082.75;;;23.82;65.03
50684;BME280;36654;45.042;38.994;2022-07-29T01:54:44;101086.34;;;23.82;64.91
50684;BME280;36654;45.042;38.994;2022-07-29T01:57:14;101081.03;;;23.79;65.17
50684;BME280;36654;45.042;38.994;2022-07-29T01:59:43;101026.41;;;23.44;65.20
50684;BME280;36654;45.042;38.994;2022-07-29T02:02:10;101075.09;;;23.68;65.41
50684;BME280;36654;45.042;38.994;2022-07-29T02:04:40;101082.03;;;23.77;65.50
50684;BME280;36654;45.042;38.994;2022-07-29T02:07:09;101081.13;;;23.76;65.69
50684;BME280;36654;45.042;38.994;2022-07-29T02:09:37;101060.88;;;23.63;65.81
50684;BME280;36654;45.042;38.994;2022-07-29T02:12:06;101064.34;;;23.66;65.01
50684;BME280;36654;45.042;38.994;2022-07-29T02:14:37;101079.47;;;23.72;65.04
50684;BME280;36654;45.042;38.994;2022-07-29T02:17:03;101082.03;;;23.77;65.20
50684;BME280;36654;45.042;38.994;2022-07-29T02:19:31;101066.44;;;23.83;64.85
50684;BME280;36654;45.042;38.994;2022-07-29T02:21:58;101079.97;;;24.07;64.36
50684;BME280;36654;45.042;38.994;2022-07-29T02:24:26;101083.56;;;24.29;63.46
50684;BME280;36654;45.042;38.994;2022-07-29T02:26:55;101076.22;;;24.55;62.73
50684;BME280;36654;45.042;38.994;2022-07-29T02:29:23;101075.75;;;24.88;61.38
50684;BME280;36654;45.042;38.994;2022-07-29T02:31:51;101080.69;;;25.21;60.39
50684;BME280;36654;45.042;38.994;2022-07-29T02:34:19;101081.38;;;25.46;59.38
50684;BME280;36654;45.042;38.994;2022-07-29T02:36:46;101082.91;;;25.71;58.75
50684;BME280;36654;45.042;38.994;2022-07-29T02:39:13;101081.81;;;25.95;57.71
50684;BME280;36654;45.042;38.994;2022-07-29T02:41:44;101075.84;;;26.25;57.22
50684;BME280;36654;45.042;38.994;2022-07-29T02:44:19;101083.50;;;26.55;55.89
50684;BME280;36654;45.042;38.994;2022-07-29T02:46:59;101083.13;;;26.80;54.69
50684;BME280;36654;45.042;38.994;2022-07-29T02:49:35;101079.72;;;27.11;53.98
50684;BME280;36654;45.042;38.994;2022-07-29T02:52:41;101075.69;;;27.36;53.29
50684;BME280;36654;45.042;38.994;2022-07-29T02:55:31;101085.31;;;27.76;52.61
50684;BME280;36654;45.042;38.994;2022-07-29T02:58:24;101091.38;;;28.14;50.85
50684;BME280;36654;45.042;38.994;2022-07-29T03:00:55;101089.09;;;28.38;50.48
50684;BME280;36654;45.042;38.994;2022-07-29T03:03:22;101089.19;;;28.53;49.96
50684;BME280;36654;45.042;38.994;2022-07-29T03:05:54;101093.47;;;28.73;48.91
50684;BME280;36654;45.042;38.994;2022-07-29T03:08:22;101090.81;;;28.87;49.10
50684;BME280;36654;45.042;38.994;2022-07-29T03:10:48;101089.78;;;29.04;48.77
50684;BME280;36654;45.042;38.994;2022-07-29T03:13:14;101062.59;;;29.02;48.94
50684;BME280;36654;45.042;38.994;2022-07-29T03:15:43;101088.81;;;29.21;48.54
50684;BME280;36654;45.042;38.994;2022-07-29T03:18:09;101086.47;;;29.29;47.98
50684;BME280;36654;45.042;38.994;2022-07-29T03:20:37;101081.09;;;29.28;47.96
50684;BME280;36654;45.042;38.994;2022-07-29T03:23:03;101090.19;;;29.28;47.64
50684;BME280;36654;45.042;38.994;2022-07-29T03:25:30;101093.69;;;29.30;47.49
50684;BME280;36654;45.042;38.994;2022-07-29T03:27:56;101084.13;;;29.37;47.65
50684;BME280;36654;45.042;38.994;2022-07-29T03:30:22;101081.03;;;29.43;47.67
50684;BME280;36654;45.042;38.994;2022-07-29T03:32:48;101100.34;;;29.55;47.68
50684;BME280;36654;45.042;38.994;2022-07-29T03:35:14;101090.00;;;29.60;47.82
50684;BME280;36654;45.042;38.994;2022-07-29T03:37:42;101090.25;;;29.71;47.03
50684;BME280;36654;45.042;38.994;2022-07-29T03:40:10;101087.63;;;29.84;46.75
50684;BME280;36654;45.042;38.994;2022-07-29T03:42:39;101092.66;;;29.90;46.91
50684;BME280;36654;45.042;38.994;2022-07-29T03:45:07;101097.97;;;29.93;46.35
50684;BME280;36654;45.042;38.994;2022-07-29T03:47:37;101100.09;;;30.02;46.49
50684;BME280;36654;45.042;38.994;2022-07-29T03:50:08;101097.84;;;30.09;46.31
50684;BME280;36654;45.042;38.994;2022-07-29T03:52:35;101096.91;;;30.23;46.27
50684;BME280;36654;45.042;38.994;2022-07-29T03:55:02;101093.22;;;30.24;46.05
50684;BME280;36654;45.042;38.994;2022-07-29T03:57:30;101054.19;;;30.07;45.74
50684;BME280;36654;45.042;38.994;2022-07-29T03:59:57;101090.69;;;30.35;45.72
50684;BME280;36654;45.042;38.994;2022-07-29T04:02:23;101086.69;;;30.41;45.94
50684;BME280;36654;45.042;38.994;2022-07-29T04:04:51;101097.19;;;30.47;45.50
50684;BME280;36654;45.042;38.994;2022-07-29T04:07:17;101074.19;;;30.22;46.12
50684;BME280;36654;45.042;38.994;2022-07-29T04:09:42;101059.63;;;30.22;46.34
50684;BME280;36654;45.042;38.994;2022-07-29T04:12:09;101100.28;;;30.55;45.99
50684;BME280;36654;45.042;38.994;2022-07-29T04:14:35;101094.78;;;30.69;45.36
50684;BME280;36654;45.042;38.994;2022-07-29T04:17:02;101089.06;;;30.87;44.67
50684;BME280;36654;45.042;38.994;2022-07-29T04:19:29;101097.44;;;30.98;44.69
50684;BME280;36654;45.042;38.994;2022-07-29T04:21:54;101098.31;;;31.11;44.45
50684;BME280;36654;45.042;38.994;2022-07-29T04:24:20;101084.97;;;31.20;44.30
50684;BME280;36654;45.042;38.994;2022-07-29T04:26:46;101109.13;;;31.40;43.68
50684;BME280;36654;45.042;38.994;2022-07-29T04:29:12;101093.59;;;31.53;43.30
50684;BME280;36654;45.042;38.994;2022-07-29T04:31:40;101102.34;;;31.71;43.00
50684;BME280;36654;45.042;38.994;2022-07-29T04:34:06;101099.91;;;31.92;42.88
50684;BME280;36654;45.042;38.994;2022-07-29T04:36:32;101097.59;;;32.12;42.43
50684;BME280;36654;45.042;38.994;2022-07-29T04:38:57;101096.34;;;32.29;42.04
50684;BME280;36654;45.042;38.994;2022-07-29T04:41:23;101093.00;;;32.49;41.18
50684;BME280;36654;45.042;38.994;2022-07-29T04:43:49;101105.47;;;32.66;40.54
50684;BME280;36654;45.042;38.994;2022-07-29T04:46:15;101080.53;;;32.69;40.34
50684;BME280;36654;45.042;38.994;2022-07-29T04:48:41;101105.19;;;33.17;39.49
50684;BME280;36654;45.042;38.994;2022-07-29T04:51:06;101073.91;;;33.31;38.89
50684;BME280;36654;45.042;38.994;2022-07-29T04:53:32;101104.97;;;33.78;38.02
50684;BME280;36654;45.042;38.994;2022-07-29T04:55:58;101080.00;;;33.92;37.77
50684;BME280;36654;45.042;38.994;2022-07-29T04:58:24;101064.09;;;34.19;37.08
50684;BME280;36654;45.042;38.994;2022-07-29T05:00:50;101100.63;;;34.75;36.90
50684;BME280;36654;45.042;38.994;2022-07-29T05:03:16;101100.63;;;35.08;35.30
50684;BME280;36654;45.042;38.994;2022-07-29T05:05:42;101098.44;;;35.22;34.69
50684;BME280;36654;45.042;38.994;2022-07-29T05:08:07;101099.91;;;35.27;34.74
50684;BME280;36654;45.042;38.994;2022-07-29T05:10:34;101098.28;;;35.24;35.07
50684;BME280;36654;45.042;38.994;2022-07-29T05:13:06;101105.75;;;35.33;34.60
50684;BME280;36654;45.042;38.994;2022-07-29T05:15:34;101095.00;;;35.30;34.02
50684;BME280;36654;45.042;38.994;2022-07-29T05:18:00;101099.16;;;35.46;33.55
50684;BME280;36654;45.042;38.994;2022-07-29T05:20:26;101103.06;;;35.64;33.17
50684;BME280;36654;45.042;38.994;2022-07-29T05:22:58;101108.78;;;35.72;32.86
50684;BME280;36654;45.042;38.994;2022-07-29T05:25:25;101108.06;;;35.70;33.51
50684;BME280;36654;45.042;38.994;2022-07-29T05:27:51;101097.16;;;35.48;33.14
50684;BME280;36654;45.042;38.994;2022-07-29T05:30:17;101104.97;;;35.42;32.92
50684;BME280;36654;45.042;38.994;2022-07-29T05:32:43;101113.75;;;35.36;33.49
50684;BME280;36654;45.042;38.994;2022-07-29T05:35:09;101104.59;;;35.57;33.02
50684;BME280;36654;45.042;38.994;2022-07-29T05:37:35;101115.72;;;35.97;32.51
50684;BME280;36654;45.042;38.994;2022-07-29T05:40:01;101053.69;;;35.92;32.19
50684;BME280;36654;45.042;38.994;2022-07-29T05:42:27;101111.84;;;36.50;31.73
50684;BME280;36654;45.042;38.994;2022-07-29T05:44:53;101097.81;;;36.73;31.45
50684;BME280;36654;45.042;38.994;2022-07-29T05:47:18;101103.34;;;36.92;31.06
50684;BME280;36654;45.042;38.994;2022-07-29T05:49:44;101107.56;;;36.96;30.50
50684;BME280;36654;45.042;38.994;2022-07-29T05:52:11;101097.09;;;37.00;30.76
50684;BME280;36654;45.042;38.994;2022-07-29T05:54:38;101102.88;;;36.87;31.14
50684;BME280;36654;45.042;38.994;2022-07-29T05:57:04;101107.84;;;36.93;30.69
50684;BME280;36654;45.042;38.994;2022-07-29T05:59:31;101095.63;;;36.96;30.42
50684;BME280;36654;45.042;38.994;2022-07-29T06:01:57;101099.69;;;36.82;30.53
50684;BME280;36654;45.042;38.994;2022-07-29T06:04:23;101082.53;;;36.59;30.02
50684;BME280;36654;45.042;38.994;2022-07-29T06:06:48;101100.47;;;36.34;30.58
50684;BME280;36654;45.042;38.994;2022-07-29T06:09:14;101090.47;;;36.02;30.76
50684;BME280;36654;45.042;38.994;2022-07-29T06:11:40;101094.94;;;35.93;31.23
50684;BME280;36654;45.042;38.994;2022-07-29T06:14:06;101097.47;;;35.75;32.00
50684;BME280;36654;45.042;38.994;2022-07-29T06:16:32;101075.63;;;35.41;32.27
50684;BME280;36654;45.042;38.994;2022-07-29T06:18:57;101081.16;;;35.41;32.54
50684;BME280;36654;45.042;38.994;2022-07-29T06:21:23;101029.00;;;35.08;32.21
50684;BME280;36654;45.042;38.994;2022-07-29T06:23:49;101090.19;;;35.22;32.40
50684;BME280;36654;45.042;38.994;2022-07-29T06:26:14;101089.94;;;34.82;32.93
50684;BME280;36654;45.042;38.994;2022-07-29T06:28:40;101077.84;;;34.19;33.79
50684;BME280;36654;45.042;38.994;2022-07-29T06:31:06;101088.75;;;33.75;34.22
50684;BME280;36654;45.042;38.994;2022-07-29T06:33:31;101089.34;;;33.56;35.10
50684;BME280;36654;45.042;38.994;2022-07-29T06:35:57;101065.56;;;33.33;35.00
50684;BME280;36654;45.042;38.994;2022-07-29T06:38:22;101087.53;;;33.33;36.21
50684;BME280;36654;45.042;38.994;2022-07-29T06:40:48;101077.50;;;33.20;36.09
50684;BME280;36654;45.042;38.994;2022-07-29T06:43:37;101082.94;;;33.09;35.45
50684;BME280;36654;45.042;38.994;2022-07-29T06:46:05;101089.88;;;33.02;36.00
50684;BME280;36654;45.042;38.994;2022-07-29T06:48:32;101076.13;;;32.91;36.18
50684;BME280;36654;45.042;38.994;2022-07-29T06:50:58;101088.06;;;32.78;36.57
50684;BME280;36654;45.042;38.994;2022-07-29T06:53:24;101053.25;;;32.55;36.24
50684;BME280;36654;45.042;38.994;2022-07-29T06:55:50;101086.00;;;32.69;36.20
50684;BME280;36654;45.042;38.994;2022-07-29T06:58:16;101064.91;;;32.45;36.45
50684;BME280;36654;45.042;38.994;2022-07-29T07:00:44;101079.31;;;32.36;36.76
50684;BME280;36654;45.042;38.994;2022-07-29T07:03:10;101075.94;;;32.33;37.13
50684;BME280;36654;45.042;38.994;2022-07-29T07:05:36;101074.47;;;32.40;36.76
50684;BME280;36654;45.042;38.994;2022-07-29T07:08:02;101088.22;;;32.27;36.80
50684;BME280;36654;45.042;38.994;2022-07-29T07:10:28;101076.84;;;32.20;36.63
50684;BME280;36654;45.042;38.994;2022-07-29T07:12:54;101074.75;;;32.24;36.29
50684;BME280;36654;45.042;38.994;2022-07-29T07:15:20;101077.03;;;32.30;36.42
50684;BME280;36654;45.042;38.994;2022-07-29T07:17:50;101068.25;;;32.25;36.27
50684;BME280;36654;45.042;38.994;2022-07-29T07:20:16;101080.75;;;32.29;36.30
50684;BME280;36654;45.042;38.994;2022-07-29T07:22:42;101074.94;;;32.34;36.03
50684;BME280;36654;45.042;38.994;2022-07-29T07:25:09;101063.88;;;32.35;35.96
50684;BME280;36654;45.042;38.994;2022-07-29T07:27:36;101044.13;;;32.30;36.35
50684;BME280;36654;45.042;38.994;2022-07-29T07:30:04;101065.56;;;32.49;35.87
50684;BME280;36654;45.042;38.994;2022-07-29T07:32:32;101065.13;;;32.42;35.57
50684;BME280;36654;45.042;38.994;2022-07-29T07:34:57;101078.97;;;32.41;35.78
50684;BME280;36654;45.042;38.994;2022-07-29T07:37:24;101063.59;;;32.51;35.70
50684;BME280;36654;45.042;38.994;2022-07-29T07:39:51;101073.81;;;32.73;34.36
50684;BME280;36654;45.042;38.994;2022-07-29T07:42:17;101054.25;;;32.78;33.74
50684;BME280;36654;45.042;38.994;2022-07-29T07:44:42;101061.88;;;32.85;33.39
50684;BME280;36654;45.042;38.994;2022-07-29T07:47:08;101058.63;;;32.80;33.18
50684;BME280;36654;45.042;38.994;2022-07-29T07:49:34;101009.59;;;32.52;33.16
50684;BME280;36654;45.042;38.994;2022-07-29T07:52:00;101052.84;;;32.72;33.22
50684;BME280;36654;45.042;38.994;2022-07-29T07:54:25;101060.84;;;32.75;33.79
50684;BME280;36654;45.042;38.994;2022-07-29T07:56:51;101070.06;;;32.74;34.08
50684;BME280;36654;45.042;38.994;2022-07-29T07:59:17;101064.28;;;32.66;34.71
50684;BME280;36654;45.042;38.994;2022-07-29T08:01:42;101066.56;;;32.72;34.99
50684;BME280;36654;45.042;38.994;2022-07-29T08:04:08;101042.44;;;32.64;34.92
50684;BME280;36654;45.042;38.994;2022-07-29T08:06:34;101056.06;;;32.66;34.85
50684;BME280;36654;45.042;38.994;2022-07-29T08:09:03;101058.56;;;32.69;34.89
50684;BME280;36654;45.042;38.994;2022-07-29T08:11:30;101050.25;;;32.82;35.32
50684;BME280;36654;45.042;38.994;2022-07-29T08:13:56;101055.44;;;32.98;35.60
50684;BME280;36654;45.042;38.994;2022-07-29T08:16:21;101029.41;;;32.79;35.35
50684;BME280;36654;45.042;38.994;2022-07-29T08:18:47;101048.94;;;32.87;35.54
50684;BME280;36654;45.042;38.994;2022-07-29T08:21:16;101047.66;;;32.80;35.64
50684;BME280;36654;45.042;38.994;2022-07-29T08:23:44;101041.91;;;32.83;35.77
50684;BME280;36654;45.042;38.994;2022-07-29T08:26:19;101039.94;;;32.97;35.50
50684;BME280;36654;45.042;38.994;2022-07-29T08:28:46;101043.13;;;33.03;36.03
50684;BME280;36654;45.042;38.994;2022-07-29T08:31:15;101042.25;;;33.03;35.36
50684;BME280;36654;45.042;38.994;2022-07-29T08:33:40;101034.97;;;33.02;35.43
50684;BME280;36654;45.042;38.994;2022-07-29T08:36:07;101027.91;;;33.11;35.62
50684;BME280;36654;45.042;38.994;2022-07-29T08:38:33;101026.41;;;33.06;35.78
50684;BME280;36654;45.042;38.994;2022-07-29T08:41:00;101045.94;;;33.02;36.37
50684;BME280;36654;45.042;38.994;2022-07-29T08:43:28;101037.97;;;32.99;36.41
50684;BME280;36654;45.042;38.994;2022-07-29T08:45:54;100996.19;;;32.71;36.23
50684;BME280;36654;45.042;38.994;2022-07-29T08:48:23;101038.50;;;33.04;35.67
50684;BME280;36654;45.042;38.994;2022-07-29T08:50:54;101038.25;;;33.07;36.10
50684;BME280;36654;45.042;38.994;2022-07-29T08:53:21;101037.38;;;33.06;35.92
50684;BME280;36654;45.042;38.994;2022-07-29T08:55:48;101038.50;;;33.04;36.32
50684;BME280;36654;45.042;38.994;2022-07-29T08:58:15;101045.00;;;33.03;35.85
50684;BME280;36654;45.042;38.994;2022-07-29T09:00:43;101029.72;;;32.99;35.64
50684;BME280;36654;45.042;38.994;2022-07-29T09:03:14;101019.00;;;32.96;36.09
50684;BME280;36654;45.042;38.994;2022-07-29T09:05:44;100958.28;;;32.76;35.58
50684;BME280;36654;45.042;38.994;2022-07-29T09:08:12;101032.94;;;33.28;35.44
50684;BME280;36654;45.042;38.994;2022-07-29T09:10:38;101040.53;;;33.24;35.16
50684;BME280;36654;45.042;38.994;2022-07-29T09:13:03;101028.06;;;33.20;35.17
50684;BME280;36654;45.042;38.994;2022-07-29T09:15:30;101040.78;;;33.21;35.06
50684;BME280;36654;45.042;38.994;2022-07-29T09:17:56;101029.25;;;33.05;34.96
50684;BME280;36654;45.042;38.994;2022-07-29T09:20:23;101024.84;;;32.91;35.44
50684;BME280;36654;45.042;38.994;2022-07-29T09:22:50;101037.44;;;32.94;35.42
50684;BME280;36654;45.042;38.994;2022-07-29T09:25:38;101038.72;;;33.01;35.03
50684;BME280;36654;45.042;38.994;2022-07-29T09:28:11;101031.47;;;33.00;34.89
50684;BME280;36654;45.042;38.994;2022-07-29T09:30:56;101023.53;;;33.08;35.21
50684;BME280;36654;45.042;38.994;2022-07-29T09:33:24;101019.31;;;33.15;34.72
50684;BME280;36654;45.042;38.994;2022-07-29T09:36:14;101010.31;;;33.13;34.85
50684;BME280;36654;45.042;38.994;2022-07-29T09:38:39;101038.91;;;33.11;34.90
50684;BME280;36654;45.042;38.994;2022-07-29T09:41:05;101025.53;;;33.06;35.19
50684;BME280;36654;45.042;38.994;2022-07-29T09:43:33;101014.81;;;33.14;34.80
50684;BME280;36654;45.042;38.994;2022-07-29T09:46:26;100997.56;;;33.12;34.52
50684;BME280;36654;45.042;38.994;2022-07-29T09:49:12;101014.84;;;33.25;34.52
50684;BME280;36654;45.042;38.994;2022-07-29T09:51:38;101012.09;;;33.25;33.49
50684;BME280;36654;45.042;38.994;2022-07-29T09:54:24;101005.19;;;33.20;32.96
50684;BME280;36654;45.042;38.994;2022-07-29T09:56:54;100997.34;;;33.15;32.75
50684;BME280;36654;45.042;38.994;2022-07-29T09:59:20;100992.16;;;32.99;33.02
50684;BME280;36654;45.042;38.994;2022-07-29T10:01:48;101003.13;;;32.99;33.24
50684;BME280;36654;45.042;38.994;2022-07-29T10:04:18;101008.38;;;32.91;33.60
50684;BME280;36654;45.042;38.994;2022-07-29T10:07:00;101005.47;;;32.81;34.19
50684;BME280;36654;45.042;38.994;2022-07-29T10:09:26;101002.72;;;32.81;34.92
50684;BME280;36654;45.042;38.994;2022-07-29T10:14:35;101011.19;;;32.78;34.55
50684;BME280;36654;45.042;38.994;2022-07-29T10:17:01;100993.69;;;32.68;35.13
50684;BME280;36654;45.042;38.994;2022-07-29T10:19:31;101000.69;;;32.72;34.50
50684;BME280;36654;45.042;38.994;2022-07-29T10:21:58;101019.94;;;32.83;34.11
50684;BME280;36654;45.042;38.994;2022-07-29T10:24:28;100981.59;;;32.71;33.33
50684;BME280;36654;45.042;38.994;2022-07-29T10:26:55;100997.75;;;32.86;33.58
50684;BME280;36654;45.042;38.994;2022-07-29T10:29:22;101006.50;;;32.92;33.37
50684;BME280;36654;45.042;38.994;2022-07-29T10:35:19;100997.50;;;32.90;32.43
50684;BME280;36654;45.042;38.994;2022-07-29T10:40:37;101003.22;;;32.86;32.26
50684;BME280;36654;45.042;38.994;2022-07-29T10:43:26;100994.47;;;32.81;32.82
50684;BME280;36654;45.042;38.994;2022-07-29T10:46:02;101002.38;;;32.86;33.33
50684;BME280;36654;45.042;38.994;2022-07-29T10:48:28;100990.50;;;32.85;33.10
50684;BME280;36654;45.042;38.994;2022-07-29T10:51:02;100978.00;;;32.81;33.47
50684;BME280;36654;45.042;38.994;2022-07-29T10:53:51;100993.78;;;32.91;33.06
50684;BME280;36654;45.042;38.994;2022-07-29T10:56:29;100993.47;;;32.82;33.04
50684;BME280;36654;45.042;38.994;2022-07-29T11:01:47;100987.72;;;32.74;33.01
50684;BME280;36654;45.042;38.994;2022-07-29T11:04:13;100988.47;;;32.76;33.38
50684;BME280;36654;45.042;38.994;2022-07-29T11:09:27;100983.75;;;32.90;33.37
50684;BME280;36654;45.042;38.994;2022-07-29T11:11:55;100992.16;;;32.99;33.22
50684;BME280;36654;45.042;38.994;2022-07-29T11:17:17;101004.50;;;32.94;33.75
50684;BME280;36654;45.042;38.994;2022-07-29T11:19:43;100954.78;;;32.74;33.92
50684;BME280;36654;45.042;38.994;2022-07-29T11:22:10;100987.03;;;32.95;34.39
50684;BME280;36654;45.042;38.994;2022-07-29T11:24:37;100985.53;;;33.02;33.91
50684;BME280;36654;45.042;38.994;2022-07-29T11:27:10;100983.81;;;33.01;33.88
50684;BME280;36654;45.042;38.994;2022-07-29T11:29:41;100975.06;;;32.96;34.19
50684;BME280;36654;45.042;38.994;2022-07-29T11:32:14;100993.03;;;33.00;34.55
50684;BME280;36654;45.042;38.994;2022-07-29T11:34:41;100963.81;;;32.99;34.54
50684;BME280;36654;45.042;38.994;2022-07-29T11:39:40;100966.84;;;33.07;34.28
50684;BME280;36654;45.042;38.994;2022-07-29T11:45:17;100923.63;;;32.86;34.33
50684;BME280;36654;45.042;38.994;2022-07-29T11:50:14;100972.75;;;33.14;34.37
50684;BME280;36654;45.042;38.994;2022-07-29T11:52:45;100971.63;;;33.16;34.27
50684;BME280;36654;45.042;38.994;2022-07-29T11:55:19;100960.88;;;33.13;34.33
50684;BME280;36654;45.042;38.994;2022-07-29T11:57:52;100946.66;;;33.08;34.49
50684;BME280;36654;45.042;38.994;2022-07-29T12:00:28;100955.88;;;33.07;34.61
50684;BME280;36654;45.042;38.994;2022-07-29T12:02:55;100952.38;;;33.05;34.54
50684;BME280;36654;45.042;38.994;2022-07-29T12:05:31;100964.25;;;33.05;34.50
50684;BME280;36654;45.042;38.994;2022-07-29T12:08:04;100948.91;;;33.03;34.39
50684;BME280;36654;45.042;38.994;2022-07-29T12:10:30;100939.91;;;33.12;34.25
50684;BME280;36654;45.042;38.994;2022-07-29T12:12:56;100942.16;;;33.18;34.69
50684;BME280;36654;45.042;38.994;2022-07-29T12:15:22;100931.31;;;33.28;34.41
50684;BME280;36654;45.042;38.994;2022-07-29T12:17:49;100932.19;;;33.28;34.64
50684;BME280;36654;45.042;38.994;2022-07-29T12:20:26;100939.19;;;33.33;34.14
50684;BME280;36654;45.042;38.994;2022-07-29T12:22:53;100930.81;;;33.23;34.04
50684;BME280;36654;45.042;38.994;2022-07-29T12:25:21;100931.91;;;33.32;34.06
50684;BME280;36654;45.042;38.994;2022-07-29T12:27:57;100919.94;;;33.21;34.02
50684;BME280;36654;45.042;38.994;2022-07-29T12:30:22;100937.41;;;33.32;34.40
50684;BME280;36654;45.042;38.994;2022-07-29T12:32:48;100925.44;;;33.21;34.04
50684;BME280;36654;45.042;38.994;2022-07-29T12:35:16;100926.56;;;33.19;33.74
50684;BME280;36654;45.042;38.994;2022-07-29T12:37:45;100924.19;;;33.14;34.11
50684;BME280;36654;45.042;38.994;2022-07-29T12:40:17;100916.19;;;33.22;34.27
50684;BME280;36654;45.042;38.994;2022-07-29T12:45:35;100923.69;;;33.43;34.27
50684;BME280;36654;45.042;38.994;2022-07-29T12:48:01;100923.69;;;33.43;33.69
50684;BME280;36654;45.042;38.994;2022-07-29T12:50:28;100920.44;;;33.38;33.67
50684;BME280;36654;45.042;38.994;2022-07-29T12:52:53;100862.13;;;33.00;33.55
50684;BME280;36654;45.042;38.994;2022-07-29T12:55:38;100917.22;;;33.33;33.68
50684;BME280;36654;45.042;38.994;2022-07-29T12:58:04;100911.94;;;33.29;33.66
50684;BME280;36654;45.042;38.994;2022-07-29T13:00:30;100911.72;;;33.33;33.73
50684;BME280;36654;45.042;38.994;2022-07-29T13:02:57;100899.09;;;33.30;34.05
50684;BME280;36654;45.042;38.994;2022-07-29T13:05:23;100894.34;;;33.32;33.53
50684;BME280;36654;45.042;38.994;2022-07-29T13:07:50;100900.31;;;33.37;33.06
50684;BME280;36654;45.042;38.994;2022-07-29T13:10:18;100910.94;;;33.42;33.63
50684;BME280;36654;45.042;38.994;2022-07-29T13:13:10;100914.69;;;33.41;33.29
50684;BME280;36654;45.042;38.994;2022-07-29T13:15:37;100918.94;;;33.34;33.10
50684;BME280;36654;45.042;38.994;2022-07-29T13:18:04;100911.94;;;33.29;33.44
50684;BME280;36654;45.042;38.994;2022-07-29T13:20:30;100901.97;;;33.28;33.09
50684;BME280;36654;45.042;38.994;2022-07-29T13:22:58;100901.22;;;33.26;33.26
50684;BME280;36654;45.042;38.994;2022-07-29T13:25:30;100885.84;;;33.24;32.84